createdAt,value
2022-10-02T00:00:03.871Z,11.07
2022-10-02T00:01:05.430Z,11.08
2022-10-02T00:02:07.110Z,11.1
2022-10-02T00:03:08.834Z,11.11
2022-10-02T00:04:10.660Z,11.13
2022-10-02T00:05:12.285Z,11.15
2022-10-02T00:06:14.011Z,11.17
2022-10-02T00:07:15.725Z,11.18
2022-10-02T00:08:21.959Z,11.21
2022-10-02T00:09:19.181Z,11.23
2022-10-02T00:10:20.911Z,11.26
2022-10-02T00:11:22.638Z,11.29
2022-10-02T00:12:24.350Z,11.31
2022-10-02T00:13:26.069Z,11.33
2022-10-02T00:14:27.803Z,11.35
2022-10-02T00:15:29.542Z,11.37
2022-10-02T00:16:31.283Z,11.39
2022-10-02T00:17:32.999Z,11.41
2022-10-02T00:18:34.713Z,11.43
2022-10-02T00:19:36.430Z,11.45
2022-10-02T00:20:38.141Z,11.47
2022-10-02T00:21:39.903Z,11.48
2022-10-02T00:22:41.617Z,11.49
2022-10-02T00:23:43.332Z,11.5
2022-10-02T00:24:45.069Z,11.5
2022-10-02T00:25:46.807Z,11.5
2022-10-02T00:26:48.530Z,11.51
2022-10-02T00:27:50.271Z,11.52
2022-10-02T00:28:51.976Z,11.53
2022-10-02T00:29:53.695Z,11.56
2022-10-02T00:30:55.410Z,11.56
2022-10-02T00:31:57.205Z,11.58
2022-10-02T00:32:58.882Z,11.58
2022-10-02T00:34:00.593Z,11.6
2022-10-02T00:35:02.315Z,11.61
2022-10-02T00:36:04.047Z,11.62
2022-10-02T00:37:05.775Z,11.64
2022-10-02T00:38:07.511Z,11.65
2022-10-02T00:39:09.213Z,11.66
2022-10-02T00:40:10.938Z,11.68
2022-10-02T00:41:12.662Z,11.69
2022-10-02T00:42:14.409Z,11.69
2022-10-02T00:43:16.141Z,11.7
2022-10-02T00:44:17.830Z,11.71
2022-10-02T00:45:19.568Z,11.71
2022-10-02T00:46:21.311Z,11.71
2022-10-02T00:47:23.042Z,11.72
2022-10-02T00:48:24.758Z,11.72
2022-10-02T00:49:26.475Z,11.72
2022-10-02T00:50:28.198Z,11.72
2022-10-02T00:51:29.933Z,11.71
2022-10-02T00:52:31.662Z,11.71
2022-10-02T00:53:33.378Z,11.71
2022-10-02T00:54:35.117Z,11.71
2022-10-02T00:55:36.842Z,11.71
2022-10-02T00:56:38.799Z,11.71
2022-10-02T00:57:40.295Z,11.71
2022-10-02T00:58:41.996Z,11.71
2022-10-02T00:59:43.723Z,11.71
2022-10-02T01:00:45.482Z,11.71
2022-10-02T01:01:47.239Z,11.71
2022-10-02T01:02:48.919Z,11.7
2022-10-02T01:03:50.653Z,11.69
2022-10-02T01:04:52.356Z,11.7
2022-10-02T01:05:54.081Z,11.69
2022-10-02T01:06:55.828Z,11.68
2022-10-02T01:07:57.555Z,11.68
2022-10-02T01:08:59.263Z,11.67
2022-10-02T01:10:00.975Z,11.67
2022-10-02T01:11:02.716Z,11.67
2022-10-02T01:12:04.437Z,11.66
2022-10-02T01:13:06.173Z,11.67
2022-10-02T01:14:07.878Z,11.67
2022-10-02T01:15:09.619Z,11.68
2022-10-02T01:16:11.422Z,11.68
2022-10-02T01:17:13.074Z,11.68
2022-10-02T01:18:14.802Z,11.67
2022-10-02T01:19:16.512Z,11.67
2022-10-02T01:20:18.233Z,11.67
2022-10-02T01:21:19.972Z,11.67
2022-10-02T01:22:21.693Z,11.67
2022-10-02T01:23:23.431Z,11.68
2022-10-02T01:24:25.133Z,11.68
2022-10-02T01:25:26.860Z,11.68
2022-10-02T01:26:28.584Z,11.68
2022-10-02T01:27:30.357Z,11.68
2022-10-02T01:28:32.112Z,11.67
2022-10-02T01:29:33.772Z,11.68
2022-10-02T01:30:35.493Z,11.67
2022-10-02T01:31:37.267Z,11.67
2022-10-02T01:32:38.950Z,11.67
2022-10-02T01:33:40.676Z,11.67
2022-10-02T01:34:42.395Z,11.67
2022-10-02T01:35:44.115Z,11.66
2022-10-02T01:36:45.834Z,11.66
2022-10-02T01:37:47.619Z,11.67
2022-10-02T01:38:49.315Z,11.67
2022-10-02T01:39:51.028Z,11.67
2022-10-02T01:40:52.743Z,11.66
2022-10-02T01:41:54.482Z,11.67
2022-10-02T01:42:56.189Z,11.67
2022-10-02T01:43:57.941Z,11.66
2022-10-02T01:44:59.639Z,11.66
2022-10-02T01:46:01.423Z,11.66
2022-10-02T01:47:03.126Z,11.66
2022-10-02T01:48:04.828Z,11.66
2022-10-02T01:49:06.567Z,11.66
2022-10-02T01:50:08.266Z,11.66
2022-10-02T01:51:10.054Z,11.66
2022-10-02T01:52:11.726Z,11.65
2022-10-02T01:53:13.463Z,11.66
2022-10-02T01:54:15.195Z,11.67
2022-10-02T01:55:16.906Z,11.67
2022-10-02T01:56:18.636Z,11.67
2022-10-02T01:57:20.348Z,11.68
2022-10-02T01:58:22.094Z,11.68
2022-10-02T01:59:23.809Z,11.69
2022-10-02T02:00:25.525Z,11.69
2022-10-02T02:01:27.326Z,11.7
2022-10-02T02:02:29.186Z,11.69
2022-10-02T02:03:30.717Z,11.7
2022-10-02T02:04:32.438Z,11.71
2022-10-02T02:05:34.165Z,11.71
2022-10-02T02:06:36.226Z,11.72
2022-10-02T02:07:37.613Z,11.71
2022-10-02T02:08:39.351Z,11.72
2022-10-02T02:09:41.081Z,11.72
2022-10-02T02:10:42.794Z,11.72
2022-10-02T02:11:44.513Z,11.72
2022-10-02T02:12:46.233Z,11.73
2022-10-02T02:13:47.958Z,11.73
2022-10-02T02:14:49.704Z,11.74
2022-10-02T02:15:51.407Z,11.74
2022-10-02T02:16:53.185Z,11.74
2022-10-02T02:17:54.872Z,11.73
2022-10-02T02:18:56.597Z,11.74
2022-10-02T02:19:58.333Z,11.73
2022-10-02T02:21:00.045Z,11.73
2022-10-02T02:22:01.758Z,11.74
2022-10-02T02:23:03.485Z,11.73
2022-10-02T02:24:05.202Z,11.73
2022-10-02T02:25:06.951Z,11.73
2022-10-02T02:26:08.675Z,11.73
2022-10-02T02:27:10.388Z,11.73
2022-10-02T02:28:12.188Z,11.72
2022-10-02T02:29:13.858Z,11.72
2022-10-02T02:30:15.574Z,11.71
2022-10-02T02:31:17.341Z,11.71
2022-10-02T02:32:19.024Z,11.7
2022-10-02T02:33:20.754Z,11.7
2022-10-02T02:34:22.510Z,11.69
2022-10-02T02:35:24.205Z,11.69
2022-10-02T02:36:25.927Z,11.69
2022-10-02T02:37:27.653Z,11.69
2022-10-02T02:38:29.356Z,11.68
2022-10-02T02:39:31.139Z,11.67
2022-10-02T02:40:32.851Z,11.66
2022-10-02T02:41:34.564Z,11.66
2022-10-02T02:42:36.311Z,11.65
2022-10-02T02:43:38.031Z,11.65
2022-10-02T02:44:39.855Z,11.64
2022-10-02T02:45:41.524Z,11.64
2022-10-02T02:46:43.183Z,11.63
2022-10-02T02:47:44.897Z,11.62
2022-10-02T02:48:46.624Z,11.62
2022-10-02T02:49:48.371Z,11.61
2022-10-02T02:50:50.102Z,11.6
2022-10-02T02:51:51.805Z,11.6
2022-10-02T02:52:53.538Z,11.59
2022-10-02T02:53:55.276Z,11.58
2022-10-02T02:54:56.985Z,11.58
2022-10-02T02:55:58.721Z,11.58
2022-10-02T02:57:00.424Z,11.58
2022-10-02T02:58:02.152Z,11.56
2022-10-02T02:59:03.902Z,11.56
2022-10-02T03:00:05.608Z,11.56
2022-10-02T03:01:07.434Z,11.57
2022-10-02T03:02:09.101Z,11.57
2022-10-02T03:03:10.774Z,11.57
2022-10-02T03:04:12.518Z,11.58
2022-10-02T03:05:14.260Z,11.58
2022-10-02T03:06:15.987Z,11.59
2022-10-02T03:07:17.691Z,11.6
2022-10-02T03:08:19.418Z,11.59
2022-10-02T03:09:21.157Z,11.61
2022-10-02T03:10:22.872Z,11.61
2022-10-02T03:11:24.608Z,11.61
2022-10-02T03:12:26.315Z,11.61
2022-10-02T03:13:28.053Z,11.63
2022-10-02T03:14:29.763Z,11.64
2022-10-02T03:15:31.531Z,11.64
2022-10-02T03:16:33.543Z,11.65
2022-10-02T03:17:34.958Z,11.66
2022-10-02T03:18:36.689Z,11.68
2022-10-02T03:19:38.409Z,11.68
2022-10-02T03:20:40.132Z,11.7
2022-10-02T03:21:41.871Z,11.71
2022-10-02T03:22:43.587Z,11.72
2022-10-02T03:23:45.291Z,11.73
2022-10-02T03:24:47.032Z,11.73
2022-10-02T03:25:48.754Z,11.74
2022-10-02T03:26:50.480Z,11.75
2022-10-02T03:27:52.304Z,11.75
2022-10-02T03:28:56.409Z,11.76
2022-10-02T03:29:55.696Z,11.76
2022-10-02T03:30:57.391Z,11.76
2022-10-02T03:31:59.156Z,11.77
2022-10-02T03:33:00.829Z,11.76
2022-10-02T03:34:02.538Z,11.77
2022-10-02T03:35:04.275Z,11.77
2022-10-02T03:36:06.000Z,11.77
2022-10-02T03:37:07.740Z,11.77
2022-10-02T03:38:09.444Z,11.77
2022-10-02T03:39:24.614Z,11.76
2022-10-02T03:40:12.914Z,11.77
2022-10-02T03:41:14.625Z,11.77
2022-10-02T03:42:16.360Z,11.77
2022-10-02T03:43:18.082Z,11.78
2022-10-02T03:44:19.814Z,11.78
2022-10-02T03:45:46.073Z,11.79
2022-10-02T03:46:23.295Z,11.79
2022-10-02T03:47:25.020Z,11.8
2022-10-02T03:48:26.699Z,11.8
2022-10-02T03:49:28.440Z,11.81
2022-10-02T03:50:35.469Z,11.81
2022-10-02T03:51:31.888Z,11.82
2022-10-02T03:52:33.619Z,11.82
2022-10-02T03:53:35.355Z,11.82
2022-10-02T03:54:37.066Z,11.82
2022-10-02T03:55:38.792Z,11.82
2022-10-02T03:56:40.520Z,11.82
2022-10-02T03:57:42.259Z,11.81
2022-10-02T03:58:43.977Z,11.82
2022-10-02T03:59:45.705Z,11.81
2022-10-02T04:00:47.411Z,11.81
2022-10-02T04:01:49.447Z,11.81
2022-10-02T04:02:50.879Z,11.82
2022-10-02T04:03:52.661Z,11.81
2022-10-02T04:04:54.316Z,11.81
2022-10-02T04:05:56.042Z,11.8
2022-10-02T04:06:57.761Z,11.8
2022-10-02T04:07:59.513Z,11.81
2022-10-02T04:09:01.226Z,11.8
2022-10-02T04:10:02.950Z,11.8
2022-10-02T04:11:04.701Z,11.79
2022-10-02T04:12:06.410Z,11.8
2022-10-02T04:13:08.147Z,11.79
2022-10-02T04:14:09.838Z,11.78
2022-10-02T04:15:11.569Z,11.78
2022-10-02T04:16:13.310Z,11.78
2022-10-02T04:17:15.028Z,11.79
2022-10-02T04:18:16.759Z,11.8
2022-10-02T04:19:18.479Z,11.81
2022-10-02T04:20:20.200Z,11.82
2022-10-02T04:21:21.951Z,11.82
2022-10-02T04:22:23.666Z,11.83
2022-10-02T04:23:25.410Z,11.83
2022-10-02T04:24:27.099Z,11.85
2022-10-02T04:25:28.844Z,11.86
2022-10-02T04:26:30.550Z,11.87
2022-10-02T04:27:32.275Z,11.88
2022-10-02T04:28:34.035Z,11.89
2022-10-02T04:29:35.739Z,11.89
2022-10-02T04:30:37.461Z,11.9
2022-10-02T04:31:39.307Z,11.9
2022-10-02T04:32:40.908Z,11.91
2022-10-02T04:33:42.642Z,11.92
2022-10-02T04:34:44.401Z,11.92
2022-10-02T04:35:46.094Z,11.93
2022-10-02T04:36:47.821Z,11.93
2022-10-02T04:37:49.544Z,11.94
2022-10-02T04:38:51.278Z,11.94
2022-10-02T04:39:52.995Z,11.95
2022-10-02T04:40:54.717Z,11.95
2022-10-02T04:41:56.458Z,11.96
2022-10-02T04:42:58.174Z,11.96
2022-10-02T04:43:59.907Z,11.97
2022-10-02T04:45:01.627Z,11.98
2022-10-02T04:46:03.390Z,11.98
2022-10-02T04:47:05.071Z,11.98
2022-10-02T04:48:06.799Z,11.98
2022-10-02T04:49:08.539Z,11.99
2022-10-02T04:50:10.289Z,11.99
2022-10-02T04:51:11.985Z,12
2022-10-02T04:52:13.688Z,11.99
2022-10-02T04:53:15.430Z,11.99
2022-10-02T04:54:17.161Z,11.99
2022-10-02T04:55:18.885Z,12
2022-10-02T04:56:20.590Z,11.99
2022-10-02T04:57:22.343Z,11.99
2022-10-02T04:58:24.052Z,12
2022-10-02T04:59:25.797Z,11.99
2022-10-02T05:00:27.505Z,12
2022-10-02T05:01:29.239Z,12
2022-10-02T05:02:30.961Z,12
2022-10-02T05:03:32.694Z,12
2022-10-02T05:04:34.415Z,12
2022-10-02T05:05:36.121Z,12.01
2022-10-02T05:06:38.198Z,12
2022-10-02T05:07:39.588Z,12
2022-10-02T05:08:41.302Z,12
2022-10-02T05:09:43.054Z,12
2022-10-02T05:10:44.762Z,12
2022-10-02T05:11:46.484Z,12
2022-10-02T05:12:48.229Z,11.99
2022-10-02T05:13:49.944Z,11.99
2022-10-02T05:14:51.667Z,11.99
2022-10-02T05:15:53.411Z,11.99
2022-10-02T05:16:55.116Z,11.98
2022-10-02T05:17:56.824Z,11.97
2022-10-02T05:18:58.559Z,11.98
2022-10-02T05:20:00.293Z,11.97
2022-10-02T05:21:02.016Z,11.97
2022-10-02T05:22:03.769Z,11.97
2022-10-02T05:23:05.465Z,11.96
2022-10-02T05:24:07.201Z,11.96
2022-10-02T05:25:08.928Z,11.95
2022-10-02T05:26:14.195Z,11.95
2022-10-02T05:27:12.376Z,11.95
2022-10-02T05:28:14.254Z,11.94
2022-10-02T05:29:15.821Z,11.94
2022-10-02T05:30:17.559Z,11.94
2022-10-02T05:31:19.304Z,11.93
2022-10-02T05:32:20.988Z,11.92
2022-10-02T05:33:22.733Z,11.92
2022-10-02T05:34:24.449Z,11.91
2022-10-02T05:35:26.191Z,11.91
2022-10-02T05:36:27.894Z,11.9
2022-10-02T05:37:29.655Z,11.9
2022-10-02T05:38:31.352Z,11.9
2022-10-02T05:39:33.090Z,11.89
2022-10-02T05:40:34.790Z,11.88
2022-10-02T05:41:36.549Z,11.89
2022-10-02T05:42:42.333Z,11.88
2022-10-02T05:43:39.971Z,11.88
2022-10-02T05:44:41.717Z,11.88
2022-10-02T05:45:43.428Z,11.88
2022-10-02T05:46:45.177Z,11.88
2022-10-02T05:47:46.943Z,11.88
2022-10-02T05:48:48.627Z,11.87
2022-10-02T05:49:50.341Z,11.87
2022-10-02T05:50:52.042Z,11.88
2022-10-02T05:51:53.782Z,11.87
2022-10-02T05:52:55.557Z,11.86
2022-10-02T05:53:57.236Z,11.87
2022-10-02T05:54:58.975Z,11.87
2022-10-02T05:56:00.691Z,11.86
2022-10-02T05:57:02.407Z,11.87
2022-10-02T05:58:04.137Z,11.86
2022-10-02T05:59:05.865Z,11.86
2022-10-02T06:00:07.594Z,11.86
2022-10-02T06:01:09.372Z,11.87
2022-10-02T06:02:11.075Z,11.86
2022-10-02T06:03:12.746Z,11.86
2022-10-02T06:04:14.489Z,11.86
2022-10-02T06:05:16.225Z,11.86
2022-10-02T06:06:17.919Z,11.86
2022-10-02T06:07:19.665Z,11.86
2022-10-02T06:08:21.392Z,11.86
2022-10-02T06:09:23.095Z,11.85
2022-10-02T06:10:24.859Z,11.85
2022-10-02T06:11:26.633Z,11.85
2022-10-02T06:12:28.309Z,11.85
2022-10-02T06:13:30.044Z,11.84
2022-10-02T06:14:31.757Z,11.84
2022-10-02T06:15:33.474Z,11.84
2022-10-02T06:16:35.587Z,11.84
2022-10-02T06:17:36.907Z,11.83
2022-10-02T06:18:38.627Z,11.83
2022-10-02T06:19:40.384Z,11.84
2022-10-02T06:20:42.085Z,11.83
2022-10-02T06:21:43.821Z,11.83
2022-10-02T06:22:45.559Z,11.84
2022-10-02T06:23:47.264Z,11.83
2022-10-02T06:24:49.022Z,11.83
2022-10-02T06:25:50.737Z,11.82
2022-10-02T06:26:52.447Z,11.83
2022-10-02T06:27:54.269Z,11.82
2022-10-02T06:28:55.891Z,11.82
2022-10-02T06:29:57.670Z,11.82
2022-10-02T06:30:59.357Z,11.82
2022-10-02T06:32:01.147Z,11.83
2022-10-02T06:33:02.802Z,11.82
2022-10-02T06:34:04.535Z,11.82
2022-10-02T06:35:06.273Z,11.82
2022-10-02T06:36:07.966Z,11.81
2022-10-02T06:37:09.708Z,11.82
2022-10-02T06:38:11.435Z,11.81
2022-10-02T06:39:13.158Z,11.81
2022-10-02T06:40:14.897Z,11.81
2022-10-02T06:41:16.623Z,11.82
2022-10-02T06:42:18.341Z,11.81
2022-10-02T06:43:20.059Z,11.81
2022-10-02T06:44:21.797Z,11.81
2022-10-02T06:45:23.596Z,11.81
2022-10-02T06:46:25.245Z,11.8
2022-10-02T06:47:26.953Z,11.8
2022-10-02T06:48:28.698Z,11.81
2022-10-02T06:49:30.428Z,11.8
2022-10-02T06:50:32.148Z,11.8
2022-10-02T06:51:33.860Z,11.8
2022-10-02T06:52:38.117Z,11.79
2022-10-02T06:53:37.320Z,11.79
2022-10-02T06:54:39.065Z,11.79
2022-10-02T06:55:40.763Z,11.78
2022-10-02T06:56:42.500Z,11.78
2022-10-02T06:57:44.226Z,11.79
2022-10-02T06:58:45.936Z,11.77
2022-10-02T06:59:47.662Z,11.77
2022-10-02T07:00:49.438Z,11.76
2022-10-02T07:01:56.408Z,11.77
2022-10-02T07:02:52.853Z,11.76
2022-10-02T07:03:54.578Z,11.75
2022-10-02T07:04:56.325Z,11.75
2022-10-02T07:05:58.008Z,11.75
2022-10-02T07:06:59.735Z,11.74
2022-10-02T07:08:01.484Z,11.74
2022-10-02T07:09:03.203Z,11.74
2022-10-02T07:10:04.937Z,11.74
2022-10-02T07:11:06.650Z,11.74
2022-10-02T07:12:08.391Z,11.73
2022-10-02T07:13:10.102Z,11.73
2022-10-02T07:14:11.838Z,11.73
2022-10-02T07:15:13.556Z,11.73
2022-10-02T07:16:15.323Z,11.73
2022-10-02T07:17:21.523Z,11.73
2022-10-02T07:18:18.719Z,11.73
2022-10-02T07:19:20.449Z,11.72
2022-10-02T07:20:22.230Z,11.73
2022-10-02T07:21:23.915Z,11.73
2022-10-02T07:22:43.895Z,11.73
2022-10-02T07:23:27.215Z,11.72
2022-10-02T07:24:28.933Z,11.72
2022-10-02T07:25:30.680Z,11.72
2022-10-02T07:26:32.397Z,11.72
2022-10-02T07:27:34.149Z,11.73
2022-10-02T07:28:35.862Z,11.72
2022-10-02T07:29:37.607Z,11.73
2022-10-02T07:30:39.383Z,11.72
2022-10-02T07:31:41.183Z,11.73
2022-10-02T07:32:42.807Z,11.72
2022-10-02T07:33:44.529Z,11.73
2022-10-02T07:34:46.294Z,11.73
2022-10-02T07:35:48.020Z,11.73
2022-10-02T07:36:49.728Z,11.73
2022-10-02T07:37:51.468Z,11.73
2022-10-02T07:38:53.230Z,11.73
2022-10-02T07:39:54.949Z,11.73
2022-10-02T07:40:59.901Z,11.73
2022-10-02T07:41:58.408Z,11.73
2022-10-02T07:43:00.145Z,11.73
2022-10-02T07:44:01.884Z,11.74
2022-10-02T07:45:03.634Z,11.74
2022-10-02T07:46:07.330Z,11.74
2022-10-02T07:47:07.108Z,11.74
2022-10-02T07:48:08.831Z,11.74
2022-10-02T07:49:10.560Z,11.74
2022-10-02T07:50:12.299Z,11.74
2022-10-02T07:51:16.997Z,11.74
2022-10-02T07:52:15.769Z,11.74
2022-10-02T07:53:17.498Z,11.73
2022-10-02T07:54:19.219Z,11.74
2022-10-02T07:55:20.969Z,11.75
2022-10-02T07:56:22.705Z,11.74
2022-10-02T07:57:24.418Z,11.75
2022-10-02T07:58:26.168Z,11.75
2022-10-02T07:59:27.877Z,11.76
2022-10-02T08:00:29.627Z,11.76
2022-10-02T08:01:31.393Z,11.77
2022-10-02T08:02:33.133Z,11.77
2022-10-02T08:03:34.884Z,11.78
2022-10-02T08:04:37.392Z,11.79
2022-10-02T08:05:38.302Z,11.8
2022-10-02T08:06:40.052Z,11.81
2022-10-02T08:07:41.780Z,11.81
2022-10-02T08:08:43.509Z,11.82
2022-10-02T08:09:45.237Z,11.82
2022-10-02T08:10:46.974Z,11.83
2022-10-02T08:11:49.627Z,11.84
2022-10-02T08:12:50.428Z,11.85
2022-10-02T08:13:52.199Z,11.85
2022-10-02T08:14:53.925Z,11.86
2022-10-02T08:15:55.781Z,11.87
2022-10-02T08:16:57.487Z,11.87
2022-10-02T08:18:29.927Z,11.88
2022-10-02T08:19:05.961Z,11.89
2022-10-02T08:20:29.196Z,11.9
2022-10-02T08:21:27.361Z,11.9
2022-10-02T08:22:33.435Z,11.91
2022-10-02T08:23:35.929Z,11.92
2022-10-02T08:24:37.656Z,11.92
2022-10-02T08:25:39.369Z,11.93
2022-10-02T08:26:41.620Z,11.94
2022-10-02T08:27:41.821Z,11.94
2022-10-02T08:29:23.570Z,11.95
2022-10-02T08:30:33.156Z,11.95
2022-10-02T08:31:39.523Z,11.95
2022-10-02T08:32:39.755Z,11.96
2022-10-02T08:33:41.494Z,11.96
2022-10-02T08:34:43.220Z,11.97
2022-10-02T08:35:44.915Z,11.98
2022-10-02T08:36:46.664Z,11.98
2022-10-02T08:37:49.483Z,11.98
2022-10-02T08:38:54.483Z,11.98
2022-10-02T08:39:54.603Z,11.98
2022-10-02T08:40:55.459Z,11.98
2022-10-02T08:42:51.753Z,11.98
2022-10-02T08:43:53.541Z,11.97
2022-10-02T08:46:30.802Z,11.97
2022-10-02T08:47:33.415Z,11.97
2022-10-02T08:48:35.141Z,11.96
2022-10-02T08:49:36.861Z,11.97
2022-10-02T08:50:38.591Z,11.97
2022-10-02T08:51:40.312Z,11.96
2022-10-02T08:52:42.045Z,11.97
2022-10-02T08:53:43.770Z,11.98
2022-10-02T08:54:45.494Z,11.98
2022-10-02T08:55:47.236Z,11.98
2022-10-02T08:56:48.938Z,11.99
2022-10-02T08:57:50.666Z,11.99
2022-10-02T08:58:52.398Z,12
2022-10-02T08:59:54.108Z,12.01
2022-10-02T09:00:55.986Z,12.01
2022-10-02T09:01:59.964Z,12
2022-10-02T09:02:59.329Z,12.02
2022-10-02T09:04:01.028Z,12.03
2022-10-02T09:05:02.755Z,12.03
2022-10-02T09:06:04.483Z,12.04
2022-10-02T09:07:06.222Z,12.04
2022-10-02T09:08:07.925Z,12.05
2022-10-02T09:09:09.687Z,12.04
2022-10-02T09:10:11.446Z,12.06
2022-10-02T09:11:13.137Z,12.06
2022-10-02T09:12:14.860Z,12.06
2022-10-02T09:13:42.475Z,12.07
2022-10-02T09:14:43.903Z,12.09
2022-10-02T09:15:45.611Z,12.09
2022-10-02T09:16:47.390Z,12.1
2022-10-02T09:17:49.073Z,12.1
2022-10-02T09:18:50.814Z,12.11
2022-10-02T09:19:52.559Z,12.11
2022-10-02T09:20:54.326Z,12.12
2022-10-02T09:21:56.035Z,12.13
2022-10-02T09:22:57.777Z,12.14
2022-10-02T09:23:59.490Z,12.14
2022-10-02T09:25:01.295Z,12.15
2022-10-02T09:26:02.956Z,12.15
2022-10-02T09:27:04.755Z,12.16
2022-10-02T09:28:06.451Z,12.17
2022-10-02T09:29:08.175Z,12.18
2022-10-02T09:30:09.921Z,12.18
2022-10-02T09:31:11.680Z,12.18
2022-10-02T09:32:13.377Z,12.19
2022-10-02T09:33:16.039Z,12.19
2022-10-02T09:34:16.826Z,12.19
2022-10-02T09:35:18.574Z,12.19
2022-10-02T09:36:20.361Z,12.19
2022-10-02T09:37:22.052Z,12.19
2022-10-02T09:38:23.757Z,12.2
2022-10-02T09:39:25.491Z,12.2
2022-10-02T09:40:27.246Z,12.2
2022-10-02T09:41:28.967Z,12.2
2022-10-02T09:42:30.712Z,12.19
2022-10-02T09:43:32.429Z,12.2
2022-10-02T09:44:34.166Z,12.21
2022-10-02T09:45:36.026Z,12.2
2022-10-02T09:46:37.925Z,12.18
2022-10-02T09:47:39.393Z,12.18
2022-10-02T09:48:41.101Z,12.18
2022-10-02T09:49:42.834Z,12.17
2022-10-02T09:50:44.590Z,12.17
2022-10-02T09:51:46.309Z,12.17
2022-10-02T09:52:48.072Z,12.16
2022-10-02T09:53:49.781Z,12.15
2022-10-02T09:54:51.507Z,12.14
2022-10-02T09:55:53.267Z,12.15
2022-10-02T09:56:54.977Z,12.14
2022-10-02T09:57:56.754Z,12.14
2022-10-02T09:58:58.456Z,12.14
2022-10-02T10:00:00.210Z,12.13
2022-10-02T10:01:01.984Z,12.13
2022-10-02T10:02:03.715Z,12.14
2022-10-02T10:03:05.394Z,12.13
2022-10-02T10:04:07.138Z,12.13
2022-10-02T10:05:08.977Z,12.12
2022-10-02T10:06:10.582Z,12.12
2022-10-02T10:07:12.914Z,12.11
2022-10-02T10:08:14.065Z,12.11
2022-10-02T10:09:15.803Z,12.11
2022-10-02T10:10:17.539Z,12.11
2022-10-02T10:11:19.252Z,12.1
2022-10-02T10:12:20.989Z,12.1
2022-10-02T10:13:22.738Z,12.1
2022-10-02T10:14:24.455Z,12.1
2022-10-02T10:15:26.196Z,12.1
2022-10-02T10:16:27.983Z,12.11
2022-10-02T10:17:29.658Z,12.11
2022-10-02T10:18:31.430Z,12.11
2022-10-02T10:19:33.136Z,12.13
2022-10-02T10:20:34.876Z,12.13
2022-10-02T10:21:36.892Z,12.14
2022-10-02T10:22:38.358Z,12.15
2022-10-02T10:23:40.089Z,12.17
2022-10-02T10:24:41.830Z,12.19
2022-10-02T10:25:43.545Z,12.21
2022-10-02T10:26:45.291Z,12.23
2022-10-02T10:27:47.089Z,12.24
2022-10-02T10:28:48.786Z,12.26
2022-10-02T10:29:50.484Z,12.26
2022-10-02T10:30:52.236Z,12.27
2022-10-02T10:31:53.994Z,12.28
2022-10-02T10:32:55.673Z,12.28
2022-10-02T10:33:57.434Z,12.3
2022-10-02T10:34:59.148Z,12.31
2022-10-02T10:36:00.908Z,12.32
2022-10-02T10:37:02.629Z,12.34
2022-10-02T10:38:04.349Z,12.36
2022-10-02T10:39:06.160Z,12.36
2022-10-02T10:40:07.816Z,12.38
2022-10-02T10:41:09.585Z,12.39
2022-10-02T10:42:11.306Z,12.41
2022-10-02T10:43:16.599Z,12.42
2022-10-02T10:44:14.776Z,12.43
2022-10-02T10:45:16.509Z,12.46
2022-10-02T10:46:18.329Z,12.47
2022-10-02T10:47:19.995Z,12.48
2022-10-02T10:48:21.722Z,12.5
2022-10-02T10:49:23.455Z,12.51
2022-10-02T10:50:25.198Z,12.51
2022-10-02T10:51:26.917Z,12.52
2022-10-02T10:52:28.630Z,12.52
2022-10-02T10:53:30.394Z,12.53
2022-10-02T10:54:32.115Z,12.54
2022-10-02T10:55:33.876Z,12.54
2022-10-02T10:56:35.592Z,12.55
2022-10-02T10:57:37.328Z,12.55
2022-10-02T10:58:39.041Z,12.56
2022-10-02T10:59:40.786Z,12.57
2022-10-02T11:00:42.584Z,12.57
2022-10-02T11:01:44.282Z,12.58
2022-10-02T11:02:45.982Z,12.57
2022-10-02T11:03:47.781Z,12.57
2022-10-02T11:04:49.469Z,12.57
2022-10-02T11:05:51.187Z,12.58
2022-10-02T11:06:52.929Z,12.57
2022-10-02T11:07:54.649Z,12.58
2022-10-02T11:08:56.377Z,12.58
2022-10-02T11:09:58.137Z,12.6
2022-10-02T11:10:59.867Z,12.6
2022-10-02T11:12:03.397Z,12.61
2022-10-02T11:13:03.333Z,12.62
2022-10-02T11:14:05.045Z,12.62
2022-10-02T11:15:06.826Z,12.63
2022-10-02T11:16:08.611Z,12.63
2022-10-02T11:17:10.270Z,12.63
2022-10-02T11:18:12.031Z,12.63
2022-10-02T11:19:16.808Z,12.63
2022-10-02T11:20:15.486Z,12.64
2022-10-02T11:21:17.227Z,12.63
2022-10-02T11:22:18.949Z,12.63
2022-10-02T11:23:20.673Z,12.62
2022-10-02T11:24:22.416Z,12.62
2022-10-02T11:25:24.158Z,12.62
2022-10-02T11:26:25.891Z,12.61
2022-10-02T11:27:27.617Z,12.6
2022-10-02T11:28:29.419Z,12.6
2022-10-02T11:29:31.096Z,12.6
2022-10-02T11:30:32.834Z,12.6
2022-10-02T11:31:35.155Z,12.6
2022-10-02T11:32:36.315Z,12.6
2022-10-02T11:33:38.089Z,12.6
2022-10-02T11:34:39.756Z,12.6
2022-10-02T11:35:41.502Z,12.6
2022-10-02T11:36:43.226Z,12.6
2022-10-02T11:37:44.959Z,12.6
2022-10-02T11:38:46.683Z,12.6
2022-10-02T11:39:48.424Z,12.6
2022-10-02T11:40:50.168Z,12.6
2022-10-02T11:41:51.900Z,12.6
2022-10-02T11:42:53.654Z,12.61
2022-10-02T11:43:55.372Z,12.6
2022-10-02T11:44:57.101Z,12.61
2022-10-02T11:45:58.908Z,12.61
2022-10-02T11:47:00.561Z,12.63
2022-10-02T11:48:02.306Z,12.62
2022-10-02T11:49:04.033Z,12.62
2022-10-02T11:50:05.778Z,12.62
2022-10-02T11:51:07.496Z,12.62
2022-10-02T11:52:09.236Z,12.63
2022-10-02T11:53:10.985Z,12.63
2022-10-02T11:54:12.722Z,12.65
2022-10-02T11:55:14.455Z,12.66
2022-10-02T11:56:16.210Z,12.68
2022-10-02T11:57:17.892Z,12.68
2022-10-02T11:58:19.660Z,12.69
2022-10-02T11:59:21.372Z,12.71
2022-10-02T12:00:23.111Z,12.72
2022-10-02T12:01:24.856Z,12.72
2022-10-02T12:02:26.705Z,12.73
2022-10-02T12:03:28.376Z,12.73
2022-10-02T12:04:30.059Z,12.73
2022-10-02T12:05:31.811Z,12.74
2022-10-02T12:06:33.545Z,12.75
2022-10-02T12:07:35.271Z,12.73
2022-10-02T12:08:37.012Z,12.75
2022-10-02T12:09:38.744Z,12.75
2022-10-02T12:10:40.490Z,12.76
2022-10-02T12:11:42.228Z,12.77
2022-10-02T12:12:43.933Z,12.77
2022-10-02T12:13:45.673Z,12.78
2022-10-02T12:14:47.390Z,12.79
2022-10-02T12:15:49.197Z,12.81
2022-10-02T12:16:50.990Z,12.82
2022-10-02T12:17:52.598Z,12.83
2022-10-02T12:18:54.367Z,12.83
2022-10-02T12:19:56.066Z,12.85
2022-10-02T12:20:57.829Z,12.84
2022-10-02T12:21:59.533Z,12.85
2022-10-02T12:23:01.284Z,12.84
2022-10-02T12:24:03.024Z,12.85
2022-10-02T12:25:04.739Z,12.84
2022-10-02T12:26:06.495Z,12.84
2022-10-02T12:27:08.222Z,12.83
2022-10-02T12:28:10.007Z,12.82
2022-10-02T12:29:11.686Z,12.81
2022-10-02T12:30:13.414Z,12.81
2022-10-02T12:31:15.163Z,12.8
2022-10-02T12:32:17.007Z,12.8
2022-10-02T12:33:18.627Z,12.78
2022-10-02T12:34:20.345Z,12.79
2022-10-02T12:35:22.113Z,12.8
2022-10-02T12:36:23.815Z,12.81
2022-10-02T12:37:25.554Z,12.83
2022-10-02T12:38:27.314Z,12.84
2022-10-02T12:39:29.034Z,12.88
2022-10-02T12:40:30.779Z,12.91
2022-10-02T12:41:32.503Z,12.92
2022-10-02T12:42:34.246Z,12.94
2022-10-02T12:43:35.976Z,12.96
2022-10-02T12:44:37.690Z,12.97
2022-10-02T12:45:39.528Z,12.99
2022-10-02T12:46:41.163Z,12.99
2022-10-02T12:47:42.955Z,13
2022-10-02T12:48:44.664Z,13
2022-10-02T12:49:46.376Z,13
2022-10-02T12:50:48.125Z,13
2022-10-02T12:51:49.850Z,13
2022-10-02T12:52:51.577Z,13
2022-10-02T12:53:53.320Z,13
2022-10-02T12:54:55.051Z,12.99
2022-10-02T12:55:56.813Z,12.99
2022-10-02T12:57:00.003Z,12.99
2022-10-02T12:58:00.246Z,13.01
2022-10-02T12:59:01.998Z,13.02
2022-10-02T13:00:03.725Z,13.04
2022-10-02T13:01:05.470Z,13.05
2022-10-02T13:02:07.260Z,13.09
2022-10-02T13:03:08.948Z,13.12
2022-10-02T13:04:10.661Z,13.14
2022-10-02T13:05:12.395Z,13.16
2022-10-02T13:06:14.146Z,13.19
2022-10-02T13:07:15.857Z,13.21
2022-10-02T13:08:17.584Z,13.23
2022-10-02T13:09:19.337Z,13.24
2022-10-02T13:10:26.429Z,13.26
2022-10-02T13:11:27.951Z,13.25
2022-10-02T13:12:29.667Z,13.25
2022-10-02T13:13:31.427Z,13.25
2022-10-02T13:14:33.145Z,13.25
2022-10-02T13:15:34.859Z,13.25
2022-10-02T13:16:36.671Z,13.25
2022-10-02T13:17:38.358Z,13.25
2022-10-02T13:18:40.074Z,13.26
2022-10-02T13:19:41.824Z,13.25
2022-10-02T13:20:43.560Z,13.24
2022-10-02T13:21:45.281Z,13.26
2022-10-02T13:22:47.022Z,13.26
2022-10-02T13:23:48.751Z,13.27